TimeAKDT,TemperatureF,Dew PointF,Humidity,Sea Level PressureIn,VisibilityMPH,Wind Direction,Wind SpeedMPH,Gust SpeedMPH,PrecipitationIn,Events,Conditions,WindDirDegrees,DateUTC
1:56 AM,39.2,33.8,81,30.52,10.0,SSE,5.8,-,N/A,,Overcast,160,2013-05-20 09:56:00
2:16 AM,37.4,35.6,93,30.52,10.0,East,3.5,-,N/A,,Scattered Clouds,90,2013-05-20 10:16:00
2:36 AM,35.6,33.8,93,30.52,10.0,ENE,3.5,-,N/A,,Scattered Clouds,60,2013-05-20 10:36:00
2:56 AM,35.6,33.8,93,30.52,10.0,Calm,Calm,-,N/A,,Clear,0,2013-05-20 10:56:00
3:16 AM,33.8,32.0,93,30.52,10.0,Calm,Calm,-,N/A,,Clear,0,2013-05-20 11:16:00
3:36 AM,33.8,32.0,93,30.52,10.0,NNW,3.5,-,N/A,,Clear,340,2013-05-20 11:36:00
3:56 AM,32.0,30.2,93,30.52,10.0,Calm,Calm,-,N/A,,Clear,0,2013-05-20 11:56:00
5:16 AM,30.2,28.4,93,30.52,10.0,NNW,4.6,-,N/A,,Clear,340,2013-05-20 13:16:00
5:36 AM,30.2,30.2,100,30.52,10.0,NNW,4.6,-,N/A,,Clear,340,2013-05-20 13:36:00
5:56 AM,32.0,30.2,93,30.52,10.0,Calm,Calm,-,N/A,,Partly Cloudy,0,2013-05-20 13:56:00
6:16 AM,33.8,32.0,93,30.52,10.0,Calm,Calm,-,N/A,,Clear,0,2013-05-20 14:16:00
6:36 AM,33.8,33.8,100,30.52,10.0,Calm,Calm,-,N/A,,Clear,0,2013-05-20 14:36:00
6:56 AM,35.6,33.8,93,30.52,10.0,Calm,Calm,-,N/A,,Clear,0,2013-05-20 14:56:00
7:16 AM,39.2,33.8,81,30.52,10.0,NW,5.8,-,N/A,,Clear,320,2013-05-20 15:16:00
7:36 AM,39.2,33.8,81,30.51,10.0,NNW,8.1,-,N/A,,Clear,340,2013-05-20 15:36:00
7:56 AM,42.8,33.8,70,30.51,10.0,NW,9.2,-,N/A,,Clear,320,2013-05-20 15:56:00
8:36 AM,44.6,32.0,61,30.50,10.0,NW,8.1,-,N/A,,Scattered Clouds,320,2013-05-20 16:36:00
8:56 AM,44.6,32.0,61,30.50,10.0,NNW,8.1,-,N/A,,Scattered Clouds,340,2013-05-20 16:56:00
9:16 AM,46.4,32.0,57,30.50,10.0,NNW,8.1,-,N/A,,Clear,340,2013-05-20 17:16:00
9:36 AM,46.4,32.0,57,30.50,10.0,NW,9.2,-,N/A,,Clear,310,2013-05-20 17:36:00
9:56 AM,46.4,30.2,53,30.49,10.0,NW,11.5,16.1,N/A,,Clear,320,2013-05-20 17:56:00
10:16 AM,48.2,28.4,46,30.49,10.0,NNW,17.3,-,N/A,,Clear,330,2013-05-20 18:16:00
10:56 AM,50.0,26.6,40,30.48,10.0,NNW,17.3,-,N/A,,Clear,340,2013-05-20 18:56:00
11:16 AM,51.8,23.0,33,30.48,10.0,NNE,12.7,19.6,N/A,,Clear,20,2013-05-20 19:16:00
11:36 AM,51.8,23.0,33,30.48,10.0,NE,5.8,18.4,N/A,,Partly Cloudy,40,2013-05-20 19:36:00
11:56 AM,51.8,23.0,33,30.47,10.0,North,12.7,18.4,N/A,,Mostly Cloudy,350,2013-05-20 19:56:00
12:16 PM,51.8,21.2,30,30.47,10.0,North,11.5,-,N/A,,Partly Cloudy,360,2013-05-20 20:16:00
12:36 PM,51.8,21.2,30,30.47,10.0,North,11.5,18.4,N/A,,Scattered Clouds,10,2013-05-20 20:36:00
12:56 PM,51.8,21.2,30,30.47,10.0,North,15.0,21.9,N/A,,Partly Cloudy,350,2013-05-20 20:56:00
1:16 PM,51.8,19.4,28,30.48,10.0,North,15.0,23.0,N/A,,Clear,10,2013-05-20 21:16:00
1:36 PM,51.8,19.4,28,30.48,10.0,NNE,12.7,24.2,N/A,,Clear,30,2013-05-20 21:36:00
1:56 PM,51.8,19.4,28,30.47,10.0,NNW,12.7,19.6,N/A,,Clear,340,2013-05-20 21:56:00
2:16 PM,51.8,19.4,28,30.47,10.0,North,13.8,25.3,N/A,,Clear,10,2013-05-20 22:16:00
2:36 PM,51.8,17.6,26,30.47,10.0,North,15.0,23.0,N/A,,Clear,360,2013-05-20 22:36:00
2:56 PM,51.8,17.6,26,30.47,10.0,North,15.0,24.2,N/A,,Clear,360,2013-05-20 22:56:00
3:16 PM,51.8,17.6,26,30.46,10.0,NNE,13.8,20.7,N/A,,Clear,20,2013-05-20 23:16:00
3:36 PM,51.8,17.6,26,30.46,10.0,NE,13.8,21.9,N/A,,Clear,40,2013-05-20 23:36:00
3:56 PM,51.8,17.6,26,30.46,10.0,North,11.5,23.0,N/A,,Clear,360,2013-05-20 23:56:00
4:16 PM,51.8,15.8,24,30.46,10.0,NNE,16.1,24.2,N/A,,Clear,20,2013-05-21 00:16:00
4:36 PM,51.8,15.8,24,30.46,10.0,NNE,13.8,20.7,N/A,,Clear,30,2013-05-21 00:36:00
4:56 PM,-9999,-9999,N/A,30.45,10.0,North,13.8,19.6,N/A,,Clear,350,2013-05-21 00:56:00
5:16 PM,-9999,-9999,N/A,30.45,10.0,North,13.8,17.3,N/A,,Clear,10,2013-05-21 01:16:00
5:36 PM,-9999,-9999,N/A,30.44,10.0,NNE,15.0,20.7,N/A,,Clear,20,2013-05-21 01:36:00
5:56 PM,-9999,-9999,N/A,30.44,10.0,North,15.0,26.5,N/A,,Clear,350,2013-05-21 01:56:00
6:16 PM,-9999,-9999,N/A,30.44,10.0,NNE,17.3,23.0,N/A,,Clear,20,2013-05-21 02:16:00
6:36 PM,-9999,-9999,N/A,30.44,10.0,North,13.8,19.6,N/A,,Clear,10,2013-05-21 02:36:00
6:56 PM,-9999,-9999,N/A,30.44,10.0,NNE,10.4,-,N/A,,Clear,30,2013-05-21 02:56:00
7:16 PM,51.8,15.8,24,30.44,10.0,North,12.7,18.4,N/A,,Clear,10,2013-05-21 03:16:00
7:36 PM,51.8,15.8,24,30.44,10.0,North,10.4,-,N/A,,Clear,350,2013-05-21 03:36:00
7:56 PM,50.0,15.8,26,30.44,10.0,North,10.4,-,N/A,,Clear,350,2013-05-21 03:56:00
8:16 PM,50.0,15.8,26,30.44,10.0,NNE,10.4,-,N/A,,Clear,30,2013-05-21 04:16:00
8:36 PM,48.2,15.8,27,30.44,10.0,North,9.2,-,N/A,,Clear,360,2013-05-21 04:36:00
8:56 PM,48.2,15.8,27,30.44,10.0,North,11.5,17.3,N/A,,Clear,350,2013-05-21 04:56:00
9:16 PM,-9999,-9999,N/A,30.44,10.0,NNW,9.2,-,N/A,,Clear,330,2013-05-21 05:16:00
9:36 PM,46.4,17.6,32,30.45,10.0,NNW,9.2,-,N/A,,Clear,330,2013-05-21 05:36:00
9:56 PM,46.4,19.4,34,30.44,10.0,NW,10.4,-,N/A,,Clear,320,2013-05-21 05:56:00
10:16 PM,44.6,19.4,37,30.44,10.0,NW,10.4,-,N/A,,Clear,320,2013-05-21 06:16:00
10:36 PM,44.6,19.4,37,30.44,10.0,NW,9.2,-,N/A,,Clear,320,2013-05-21 06:36:00
11:56 PM,42.8,19.4,39,30.43,10.0,NNW,8.1,-,N/A,,Clear,340,2013-05-21 07:56:00